Robertsdale, PA

12:59 PM EDT on October 17, 2019 (GMT -0400)
White Church | | Change Station
Active Advisory: Wind Advisory

Elev 1562 ft 40.18 °N, 78.19 °W | Updated 19 seconds ago

Overcast
Overcast
46.9 °F
Feels Like 47 °F
N
2
Wind Variable Wind from ESE
Gusts 2.2 mph

Today
High -- | Low -- °F
--% Chance of Precip.
Yesterday
High -- | Low -- °F
Precip. -- in
Pressure 29.68 in
Visibility 10.0 miles
Clouds Mostly Cloudy 2700 ft
Overcast 3300 ft
Windchill 47 °F
Dew Point 39 °F
Humidity 75%
Rainfall 0.00 in
Snow Depth Not available.
7:24 AM 6:30 PM
Waning Gibbous, 86% visible
METAR KAOO 171653Z AUTO 29017G27KT 10SM BKN027 OVC033 09/02 A2967 RMK AO2 PK WND 30031/1607 SLP050 T00890022
Pressure 29.68 in
Visibility 10.0 miles
Clouds Mostly Cloudy 2700 ft
Overcast 3300 ft
Windchill 47 °F
Dew Point 39 °F
Humidity 75%
Rainfall 0.00 in
Snow Depth Not available.
7:24 AM 6:30 PM
Waning Gibbous, 86% visible
METAR KAOO 171653Z AUTO 29017G27KT 10SM BKN027 OVC033 09/02 A2967 RMK AO2 PK WND 30031/1607 SLP050 T00890022

Get Your Daily Forecast Email!

Thanks for signing up!

Be on the lookout for a verification email in your inbox.

You'll start receiving severe weather alerts in your inbox..

×

10-Day Weather Forecast

Almanac

Astronomy

Oct. 17, 2019 Rise Set
Actual Time
Civil Twilight
Nautical Twilight
Astronomical Twilight
Moon
Length of Visible Light
Length of Day
Tomorrow will be .
, % of the Moon is Illuminated

Today's Extremes

State Highs State Lows

Community

WunderPhotos

Category 6

Welcome to Category 6. This is the collective home for Weather Underground's featured writeups by Dr. Jeff Masters (right), Bob Henson (left), Chris Burt, and other regular contributors.

Nearby

Air Quality

  Air Quality AQ Index Pollutant
Not available.

Snow Depth

Station Depth Elevation

Earthquake Activity

City Distance Mag. Time & Date
Minimum magnitude displayed is 2.5.

Coastal Water Temperatures

Place Temperature

Stations

Nearby Weather Stations

Station Location Temp. Windchill Dew Point Humidity Wind Precip. Elev Updated Type
                   

Watches & Warnings

Wind Advisory
Issued: 3:26 AM EDT Oct. 17, 2019 – National Weather Service

... Wind Advisory remains in effect from 8 am this morning to 8 PM
EDT this evening...

* what... west winds 15 to 25 mph with gusts between 45 and 50 mph
expected.

* Where... Somerset, Bedford, Fulton, Huntingdon, Blair and
Cambria counties.

* When... from 8 am to 8 PM EDT Thursday.

* Impacts... gusty winds could blow around unsecured objects.
Tree limbs could be blown down and a few power outages may
result.

Precautionary/preparedness actions...

Use extra caution when driving, especially if operating a high
profile vehicle. Secure outdoor objects.

For high wind safety information, visit weather.Gov/wind.

The latest forecast information can be found on the
NWS State College facebook Page and twitter @nwsstatecollege,
or on the web at weather.Gov/ctp.



La corte